createdAt,value
2018-06-23T00:02:26.294Z,20.50
2018-06-23T00:04:59.552Z,17.87
2018-06-23T00:07:32.878Z,23.50
2018-06-23T00:10:06.300Z,20.87
2018-06-23T00:12:39.584Z,21.53
2018-06-23T00:15:12.749Z,21.67
2018-06-23T00:17:46.093Z,28.17
2018-06-23T00:20:19.369Z,20.70
2018-06-23T00:22:52.660Z,21.10
2018-06-23T00:25:31.781Z,24.10
2018-06-23T00:28:05.060Z,21.37
2018-06-23T00:30:38.348Z,22.25
2018-06-23T00:33:11.829Z,21.07
2018-06-23T00:35:45.143Z,17.27
2018-06-23T00:38:18.336Z,19.85
2018-06-23T00:40:51.633Z,18.13
2018-06-23T00:43:24.776Z,17.70
2018-06-23T00:45:58.192Z,19.97
2018-06-23T00:48:31.549Z,23.10
2018-06-23T00:51:04.801Z,22.47
2018-06-23T00:53:38.075Z,23.27
2018-06-23T00:56:11.292Z,21.17
2018-06-23T00:58:50.333Z,15.37
2018-06-23T01:01:23.784Z,19.97
2018-06-23T01:03:57.037Z,16.93
2018-06-23T01:06:30.296Z,24.53
2018-06-23T01:09:06.299Z,23.67
2018-06-23T01:11:39.587Z,20.90
2018-06-23T01:14:12.786Z,21.30
2018-06-23T01:16:46.040Z,17.40
2018-06-23T01:19:19.416Z,17.03
2018-06-23T01:21:52.677Z,17.55
2018-06-23T01:24:26.612Z,15.40
2018-06-23T01:26:59.928Z,22.93
2018-06-23T01:29:33.310Z,19.90
2018-06-23T01:32:06.656Z,21.03
2018-06-23T01:34:40.000Z,22.67
2018-06-23T01:37:13.205Z,18.13
2018-06-23T01:39:46.576Z,15.90
2018-06-23T01:42:19.752Z,20.50
2018-06-23T01:44:53.048Z,19.07
2018-06-23T01:47:26.437Z,24.77
2018-06-23T01:49:59.775Z,20.27
2018-06-23T01:52:33.128Z,20.63
2018-06-23T01:55:06.417Z,16.83
2018-06-23T01:57:39.784Z,17.23
2018-06-23T02:00:13.249Z,21.27
2018-06-23T02:02:46.428Z,20.63
2018-06-23T02:05:19.896Z,21.50
2018-06-23T02:07:53.216Z,18.63
2018-06-23T02:10:26.430Z,16.73
2018-06-23T02:12:59.741Z,20.30
2018-06-23T02:15:38.600Z,23.07
2018-06-23T02:18:17.600Z,24.43
2018-06-23T02:20:56.537Z,18.40
2018-06-23T02:23:35.417Z,20.47
2018-06-23T02:28:17.856Z,18.47
2018-06-23T02:30:56.963Z,16.47
2018-06-23T02:33:36.156Z,22.53
2018-06-23T02:36:09.412Z,19.93
2018-06-23T02:38:42.768Z,20.67
2018-06-23T02:41:16.158Z,19.27
2018-06-23T02:43:49.532Z,19.13
2018-06-23T02:46:22.687Z,19.53
2018-06-23T02:48:55.928Z,24.93
2018-06-23T02:51:29.240Z,16.43
2018-06-23T02:54:02.511Z,23.47
2018-06-23T02:56:35.707Z,19.30
2018-06-23T02:59:08.975Z,20.30
2018-06-23T03:01:42.200Z,22.07
2018-06-23T03:04:15.857Z,21.80
2018-06-23T03:06:49.141Z,18.17
2018-06-23T03:09:22.504Z,18.13
2018-06-23T03:11:55.758Z,19.67
2018-06-23T03:14:29.161Z,15.33
2018-06-23T03:17:02.625Z,20.63
2018-06-23T03:19:35.932Z,17.30
2018-06-23T03:22:09.098Z,23.13
2018-06-23T03:24:42.526Z,17.90
2018-06-23T03:27:15.701Z,18.53
2018-06-23T03:29:49.112Z,22.10
2018-06-23T03:32:22.493Z,21.43
2018-06-23T03:34:55.825Z,20.33
2018-06-23T03:37:29.205Z,24.40
2018-06-23T03:40:02.712Z,23.60
2018-06-23T03:42:36.060Z,17.47
2018-06-23T03:45:09.370Z,18.30
2018-06-23T03:47:42.557Z,20.23
2018-06-23T03:50:15.761Z,20.07
2018-06-23T03:52:49.031Z,26.10
2018-06-23T03:55:22.771Z,20.43
2018-06-23T03:57:56.003Z,19.37
2018-06-23T04:00:29.400Z,22.03
2018-06-23T04:03:02.773Z,22.23
2018-06-23T04:05:36.622Z,18.60
2018-06-23T04:08:10.038Z,21.83
2018-06-23T04:10:43.312Z,21.80
2018-06-23T04:13:16.683Z,21.80
2018-06-23T04:15:49.932Z,20.67
2018-06-23T04:18:23.208Z,16.67
2018-06-23T04:20:56.593Z,16.80
2018-06-23T04:23:29.816Z,20.83
2018-06-23T04:26:03.026Z,13.43
2018-06-23T04:28:36.271Z,20.73
2018-06-23T04:31:09.516Z,21.83
2018-06-23T04:33:43.006Z,18.73
2018-06-23T04:36:16.231Z,18.97
2018-06-23T04:38:49.588Z,18.00
2018-06-23T04:41:22.860Z,22.83
2018-06-23T04:43:56.128Z,16.70
2018-06-23T04:46:29.505Z,17.27
2018-06-23T04:49:02.836Z,22.67
2018-06-23T04:51:36.184Z,20.33
2018-06-23T04:54:09.388Z,21.17
2018-06-23T04:56:42.609Z,16.23
2018-06-23T04:59:15.988Z,22.63
2018-06-23T05:01:49.281Z,20.63
2018-06-23T05:04:22.551Z,19.47
2018-06-23T05:06:55.880Z,18.67
2018-06-23T05:09:29.057Z,24.10
2018-06-23T05:12:02.304Z,19.60
2018-06-23T05:14:35.579Z,18.47
2018-06-23T05:17:08.830Z,18.40
2018-06-23T05:19:42.112Z,18.97
2018-06-23T05:22:15.359Z,21.80
2018-06-23T05:24:48.997Z,19.23
2018-06-23T05:27:22.241Z,18.73
2018-06-23T05:29:55.485Z,21.17
2018-06-23T05:32:28.665Z,21.03
2018-06-23T05:35:02.124Z,18.83
2018-06-23T05:37:35.504Z,23.70
2018-06-23T05:40:08.700Z,17.43
2018-06-23T05:42:42.098Z,18.17
2018-06-23T05:45:15.492Z,20.83
2018-06-23T05:47:48.848Z,20.87
2018-06-23T05:50:22.146Z,17.30
2018-06-23T05:52:55.432Z,16.60
2018-06-23T05:55:28.816Z,15.95
2018-06-23T05:58:02.168Z,18.20
2018-06-23T06:00:35.988Z,21.17
2018-06-23T06:03:09.277Z,15.07
2018-06-23T06:05:42.513Z,18.00
2018-06-23T06:08:15.744Z,22.03
2018-06-23T06:10:49.001Z,14.83
2018-06-23T06:13:22.209Z,23.13
2018-06-23T06:15:55.603Z,20.95
2018-06-23T06:18:28.963Z,23.10
2018-06-23T06:21:02.174Z,19.07
2018-06-23T06:23:35.528Z,16.63
2018-06-23T06:26:08.909Z,13.80
2018-06-23T06:28:42.066Z,18.73
2018-06-23T06:31:15.464Z,20.83
2018-06-23T06:33:48.764Z,16.20
2018-06-23T06:36:21.945Z,17.00
2018-06-23T06:38:55.281Z,18.70
2018-06-23T06:41:28.637Z,18.80
2018-06-23T06:44:02.144Z,15.63
2018-06-23T06:46:35.436Z,13.87
2018-06-23T06:49:08.644Z,20.20
2018-06-23T06:51:41.881Z,19.17
2018-06-23T06:54:15.229Z,17.87
2018-06-23T06:56:49.681Z,13.27
2018-06-23T06:59:23.057Z,15.27
2018-06-23T07:01:56.380Z,16.10
2018-06-23T07:04:29.588Z,17.10
2018-06-23T07:07:02.873Z,14.60
2018-06-23T07:09:36.084Z,12.87
2018-06-23T07:12:09.291Z,11.97
2018-06-23T07:14:42.676Z,13.27
2018-06-23T07:17:16.056Z,9.97
2018-06-23T07:19:49.387Z,9.97
2018-06-23T07:22:22.751Z,13.33
2018-06-23T07:24:56.050Z,12.60
2018-06-23T07:27:29.177Z,10.93
2018-06-23T07:30:02.378Z,12.33
2018-06-23T07:32:35.929Z,10.90
2018-06-23T07:35:09.186Z,11.40
2018-06-23T07:37:42.400Z,12.57
2018-06-23T07:40:15.758Z,10.53
2018-06-23T07:42:49.073Z,11.93
2018-06-23T07:45:22.324Z,10.53
2018-06-23T07:47:55.539Z,10.67
2018-06-23T07:50:29.154Z,10.90
2018-06-23T07:53:02.566Z,13.77
2018-06-23T07:55:35.915Z,10.20
2018-06-23T07:58:09.354Z,7.40
2018-06-23T08:00:42.697Z,10.03
2018-06-23T08:03:16.064Z,13.93
2018-06-23T08:05:49.324Z,15.57
2018-06-23T08:08:22.763Z,12.87
2018-06-23T08:10:56.320Z,16.20
2018-06-23T08:13:29.592Z,12.10
2018-06-23T08:16:03.053Z,12.63
2018-06-23T08:18:36.366Z,8.20
2018-06-23T08:21:09.708Z,12.23
2018-06-23T08:23:42.951Z,11.23
2018-06-23T08:26:16.195Z,11.87
2018-06-23T08:28:49.491Z,10.97
2018-06-23T08:31:22.664Z,9.23
2018-06-23T08:33:55.997Z,10.93
2018-06-23T08:36:29.394Z,13.53
2018-06-23T08:39:03.889Z,11.07
2018-06-23T08:41:37.176Z,16.00
2018-06-23T08:44:10.412Z,7.70
2018-06-23T08:46:43.740Z,11.53
2018-06-23T08:49:17.179Z,10.57
2018-06-23T08:51:50.450Z,7.30
2018-06-23T08:54:23.799Z,8.77
2018-06-23T08:56:57.207Z,9.60
2018-06-23T08:59:30.510Z,12.83
2018-06-23T09:02:03.906Z,9.37
2018-06-23T09:04:37.257Z,12.80
2018-06-23T09:07:10.604Z,9.30
2018-06-23T09:09:43.928Z,13.67
2018-06-23T09:12:17.441Z,12.30
2018-06-23T09:14:50.620Z,7.80
2018-06-23T09:17:23.824Z,8.90
2018-06-23T09:19:57.041Z,11.17
2018-06-23T09:22:30.229Z,7.50
2018-06-23T09:25:03.560Z,9.20
2018-06-23T09:27:36.898Z,7.33
2018-06-23T09:30:12.309Z,9.33
2018-06-23T09:32:45.589Z,11.10
2018-06-23T09:35:19.049Z,6.90
2018-06-23T09:37:52.427Z,8.97
2018-06-23T09:40:25.652Z,13.07
2018-06-23T09:42:58.877Z,11.80
2018-06-23T09:45:32.149Z,8.50
2018-06-23T09:48:05.566Z,10.53
2018-06-23T09:50:38.921Z,10.63
2018-06-23T09:53:12.148Z,8.60
2018-06-23T09:55:45.398Z,9.83
2018-06-23T09:58:18.777Z,5.70
2018-06-23T10:00:52.161Z,11.90
2018-06-23T10:03:25.517Z,9.43
2018-06-23T10:05:58.792Z,9.47
2018-06-23T10:08:32.227Z,8.33
2018-06-23T10:11:05.577Z,10.20
2018-06-23T10:13:39.178Z,8.63
2018-06-23T10:16:12.532Z,7.70
2018-06-23T10:18:45.897Z,10.83
2018-06-23T10:21:19.127Z,11.63
2018-06-23T10:23:52.530Z,9.90
2018-06-23T10:26:25.860Z,6.27
2018-06-23T10:28:59.173Z,9.13
2018-06-23T10:31:32.398Z,11.23
2018-06-23T10:34:06.141Z,10.17
2018-06-23T10:36:39.380Z,12.97
2018-06-23T10:39:12.560Z,10.17
2018-06-23T10:41:45.920Z,10.77
2018-06-23T10:44:19.241Z,10.47
2018-06-23T10:46:52.641Z,8.03
2018-06-23T10:49:26.029Z,6.50
2018-06-23T10:51:59.337Z,9.43
2018-06-23T10:54:32.592Z,9.70
2018-06-23T10:57:05.808Z,6.23
2018-06-23T10:59:39.186Z,8.23
2018-06-23T11:02:12.549Z,6.50
2018-06-23T11:04:45.903Z,7.60
2018-06-23T11:07:19.216Z,8.67
2018-06-23T11:09:52.448Z,9.63
2018-06-23T11:12:25.848Z,10.30
2018-06-23T11:14:59.048Z,11.97
2018-06-23T11:17:32.233Z,10.40
2018-06-23T11:20:06.069Z,10.73
2018-06-23T11:22:39.868Z,7.87
2018-06-23T11:25:13.276Z,8.87
2018-06-23T11:27:46.536Z,7.63
2018-06-23T11:30:19.836Z,7.67
2018-06-23T11:32:53.252Z,7.13
2018-06-23T11:35:26.517Z,7.17
2018-06-23T11:37:59.877Z,6.67
2018-06-23T11:40:33.093Z,10.07
2018-06-23T11:43:06.465Z,7.00
2018-06-23T11:45:39.694Z,7.83
2018-06-23T11:48:13.063Z,9.27
2018-06-23T11:50:46.400Z,8.20
2018-06-23T11:53:19.736Z,9.27
2018-06-23T11:55:53.097Z,11.00
2018-06-23T11:58:26.413Z,9.57
2018-06-23T12:00:59.778Z,6.63
2018-06-23T12:03:33.140Z,11.40
2018-06-23T12:06:06.392Z,7.30
2018-06-23T12:08:39.637Z,10.37
2018-06-23T12:11:13.043Z,13.50
2018-06-23T12:13:46.260Z,8.43
2018-06-23T12:16:20.396Z,8.90
2018-06-23T12:18:53.845Z,7.47
2018-06-23T12:21:27.128Z,9.00
2018-06-23T12:24:00.428Z,11.50
2018-06-23T12:26:33.980Z,10.57
2018-06-23T12:29:07.160Z,11.33
2018-06-23T12:31:40.457Z,10.13
2018-06-23T12:34:13.702Z,6.07
2018-06-23T12:36:47.018Z,10.93
2018-06-23T12:39:20.412Z,10.73
2018-06-23T12:41:53.734Z,6.50
2018-06-23T12:44:27.105Z,7.80
2018-06-23T12:47:00.445Z,9.97
2018-06-23T12:49:33.845Z,8.40
2018-06-23T12:52:07.245Z,11.20
2018-06-23T12:54:40.609Z,9.67
2018-06-23T12:57:13.956Z,9.33
2018-06-23T12:59:47.316Z,6.97
2018-06-23T13:02:20.533Z,7.67
2018-06-23T13:04:53.852Z,8.83
2018-06-23T13:07:27.072Z,10.03
2018-06-23T13:10:00.484Z,9.70
2018-06-23T13:12:33.861Z,8.87
2018-06-23T13:15:07.510Z,10.13
2018-06-23T13:17:40.781Z,8.73
2018-06-23T13:20:14.029Z,17.87
2018-06-23T13:22:47.276Z,7.33
2018-06-23T13:25:20.524Z,10.23
2018-06-23T13:27:53.898Z,6.37
2018-06-23T13:30:28.465Z,9.20
2018-06-23T13:33:01.848Z,9.27
2018-06-23T13:35:35.080Z,9.30
2018-06-23T13:38:08.257Z,10.80
2018-06-23T13:40:41.597Z,10.67
2018-06-23T13:43:14.992Z,8.37
2018-06-23T13:45:48.221Z,12.67
2018-06-23T13:48:21.376Z,7.20
2018-06-23T13:50:54.744Z,10.23
2018-06-23T13:53:28.252Z,7.67
2018-06-23T13:56:01.437Z,8.30
2018-06-23T13:58:34.656Z,9.73
2018-06-23T14:01:08.048Z,11.00
2018-06-23T14:03:41.230Z,7.57
2018-06-23T14:06:14.525Z,8.40
2018-06-23T14:08:47.748Z,10.50
2018-06-23T14:11:21.277Z,8.93
2018-06-23T14:13:54.516Z,9.63
2018-06-23T14:16:27.917Z,8.23
2018-06-23T14:19:01.277Z,12.33
2018-06-23T14:21:34.497Z,9.93
2018-06-23T14:24:07.928Z,8.53
2018-06-23T14:26:41.177Z,9.87
2018-06-23T14:29:14.401Z,8.70
2018-06-23T14:31:47.945Z,9.17
2018-06-23T14:34:20.967Z,8.60
2018-06-23T14:36:54.252Z,8.50
2018-06-23T14:39:27.580Z,6.30
2018-06-23T14:42:00.816Z,8.03
2018-06-23T14:44:34.168Z,8.10
2018-06-23T14:47:07.365Z,9.37
2018-06-23T14:49:40.612Z,6.00
2018-06-23T14:52:13.844Z,7.07
2018-06-23T14:54:47.182Z,7.30
2018-06-23T14:57:20.621Z,7.77
2018-06-23T14:59:53.901Z,7.63
2018-06-23T15:02:27.272Z,6.67
2018-06-23T15:05:00.495Z,7.27
2018-06-23T15:07:33.672Z,7.10
2018-06-23T15:10:18.576Z,8.23
2018-06-23T15:13:03.369Z,11.00
2018-06-23T15:15:36.713Z,10.80
2018-06-23T15:18:10.025Z,10.77
2018-06-23T15:20:43.369Z,11.13
2018-06-23T15:23:16.768Z,9.97
2018-06-23T15:25:50.093Z,9.80
2018-06-23T15:28:23.268Z,11.00
2018-06-23T15:30:56.576Z,7.07
2018-06-23T15:33:29.972Z,8.33
2018-06-23T15:36:03.293Z,8.93
2018-06-23T15:38:36.598Z,9.00
2018-06-23T15:41:09.810Z,6.53
2018-06-23T15:43:43.116Z,8.73
2018-06-23T15:46:16.344Z,9.13
2018-06-23T15:48:49.717Z,6.70
2018-06-23T15:51:22.964Z,6.93
2018-06-23T15:53:56.283Z,7.50
2018-06-23T15:56:29.513Z,7.93
2018-06-23T15:59:02.685Z,8.43
2018-06-23T16:01:36.017Z,6.10
2018-06-23T16:04:09.364Z,7.77
2018-06-23T16:06:42.732Z,4.97
2018-06-23T16:09:16.127Z,7.77
2018-06-23T16:11:49.539Z,9.17
2018-06-23T16:14:22.947Z,6.13
2018-06-23T16:16:56.435Z,4.87
2018-06-23T16:19:29.780Z,8.63
2018-06-23T16:22:03.232Z,7.37
2018-06-23T16:24:36.454Z,6.47
2018-06-23T16:27:09.641Z,4.87
2018-06-23T16:29:42.980Z,5.83
2018-06-23T16:32:16.405Z,6.90
2018-06-23T16:34:49.852Z,7.93
2018-06-23T16:37:23.147Z,5.03
2018-06-23T16:39:56.476Z,5.33
2018-06-23T16:42:29.988Z,6.17
2018-06-23T16:45:03.703Z,6.83
2018-06-23T16:47:37.094Z,8.00
2018-06-23T16:50:10.429Z,7.40
2018-06-23T16:52:43.704Z,4.57
2018-06-23T16:55:17.120Z,5.73
2018-06-23T16:57:50.388Z,5.20
2018-06-23T17:00:23.585Z,4.90
2018-06-23T17:02:56.855Z,4.87
2018-06-23T17:05:30.034Z,6.27
2018-06-23T17:08:03.457Z,5.83
2018-06-23T17:10:36.721Z,4.03
2018-06-23T17:13:10.080Z,4.30
2018-06-23T17:15:43.428Z,5.60
2018-06-23T17:18:16.800Z,6.37
2018-06-23T17:20:50.046Z,6.83
2018-06-23T17:23:23.237Z,4.77
2018-06-23T17:25:56.596Z,7.07
2018-06-23T17:28:29.825Z,6.93
2018-06-23T17:31:02.982Z,4.90
2018-06-23T17:33:36.177Z,6.63
2018-06-23T17:36:09.344Z,5.73
2018-06-23T17:38:42.628Z,6.60
2018-06-23T17:41:16.125Z,8.73
2018-06-23T17:43:49.325Z,6.07
2018-06-23T17:46:22.635Z,8.57
2018-06-23T17:48:55.900Z,10.37
2018-06-23T17:51:29.108Z,5.83
2018-06-23T17:54:02.255Z,9.43
2018-06-23T17:56:35.588Z,6.50
2018-06-23T17:59:08.808Z,9.83
2018-06-23T18:01:42.156Z,8.17
2018-06-23T18:04:15.360Z,7.47
2018-06-23T18:06:48.644Z,7.00
2018-06-23T18:09:22.109Z,6.90
2018-06-23T18:11:55.300Z,6.50
2018-06-23T18:14:28.513Z,5.80
2018-06-23T18:17:01.921Z,7.27
2018-06-23T18:19:35.321Z,7.10
2018-06-23T18:22:08.685Z,4.40
2018-06-23T18:24:41.997Z,6.30
2018-06-23T18:27:15.257Z,6.70
2018-06-23T18:29:48.608Z,5.40
2018-06-23T18:32:22.035Z,7.97
2018-06-23T18:34:55.237Z,6.00
2018-06-23T18:37:28.420Z,8.03
2018-06-23T18:40:01.845Z,4.50
2018-06-23T18:42:35.148Z,9.07
2018-06-23T18:45:08.383Z,8.63
2018-06-23T18:47:41.599Z,6.40
2018-06-23T18:50:14.788Z,6.30
2018-06-23T18:52:48.116Z,5.40
2018-06-23T18:55:21.464Z,6.67
2018-06-23T18:57:54.800Z,7.07
2018-06-23T19:00:28.181Z,6.17
2018-06-23T19:03:01.599Z,4.63
2018-06-23T19:05:34.971Z,5.97
2018-06-23T19:08:08.368Z,8.93
2018-06-23T19:10:41.684Z,5.50
2018-06-23T19:13:15.032Z,7.50
2018-06-23T19:15:48.309Z,5.47
2018-06-23T19:18:21.764Z,8.10
2018-06-23T19:20:55.100Z,6.03
2018-06-23T19:23:28.429Z,8.50
2018-06-23T19:26:01.665Z,6.83
2018-06-23T19:28:34.864Z,8.60
2018-06-23T19:31:08.132Z,7.77
2018-06-23T19:33:41.323Z,9.00
2018-06-23T19:36:14.681Z,7.17
2018-06-23T19:38:47.917Z,6.37
2018-06-23T19:41:23.820Z,8.80
2018-06-23T19:43:57.167Z,7.63
2018-06-23T19:46:30.473Z,10.20
2018-06-23T19:49:03.652Z,9.23
2018-06-23T19:51:36.905Z,8.67
2018-06-23T19:54:10.288Z,8.57
2018-06-23T19:56:43.599Z,12.23
2018-06-23T19:59:16.768Z,9.47
2018-06-23T20:01:50.030Z,14.47
2018-06-23T20:04:23.259Z,7.50
2018-06-23T20:06:56.438Z,7.77
2018-06-23T20:09:29.829Z,10.40
2018-06-23T20:12:03.212Z,11.97
2018-06-23T20:14:36.463Z,7.80
2018-06-23T20:17:09.876Z,12.60
2018-06-23T20:19:43.148Z,10.70
2018-06-23T20:22:16.454Z,11.33
2018-06-23T20:24:49.697Z,7.87
2018-06-23T20:27:22.954Z,7.33
2018-06-23T20:29:56.657Z,8.47
2018-06-23T20:32:29.836Z,11.23
2018-06-23T20:35:03.208Z,10.90
2018-06-23T20:37:36.404Z,7.63
2018-06-23T20:40:09.600Z,12.37
2018-06-23T20:42:42.846Z,11.23
2018-06-23T20:45:16.296Z,11.47
2018-06-23T20:47:49.554Z,15.63
2018-06-23T20:50:22.918Z,11.70
2018-06-23T20:52:56.348Z,12.30
2018-06-23T20:55:29.797Z,13.17
2018-06-23T20:58:03.235Z,15.27
2018-06-23T21:00:36.446Z,12.23
2018-06-23T21:03:09.869Z,13.40
2018-06-23T21:05:43.256Z,9.00
2018-06-23T21:08:16.621Z,12.40
2018-06-23T21:10:49.996Z,10.20
2018-06-23T21:13:23.437Z,10.37
2018-06-23T21:15:56.747Z,11.40
2018-06-23T21:18:29.969Z,12.97
2018-06-23T21:21:03.376Z,9.70
2018-06-23T21:23:36.681Z,12.77
2018-06-23T21:26:09.887Z,12.50
2018-06-23T21:28:43.340Z,12.90
2018-06-23T21:31:16.581Z,14.90
2018-06-23T21:33:49.869Z,13.23
2018-06-23T21:36:23.269Z,13.47
2018-06-23T21:38:56.528Z,12.17
2018-06-23T21:41:29.727Z,11.90
2018-06-23T21:44:02.964Z,11.87
2018-06-23T21:46:36.214Z,12.13
2018-06-23T21:49:09.456Z,14.70
2018-06-23T21:51:42.809Z,8.10
2018-06-23T21:54:15.979Z,16.23
2018-06-23T21:56:49.312Z,13.53
2018-06-23T21:59:22.741Z,11.73
2018-06-23T22:01:56.020Z,13.70
2018-06-23T22:04:29.369Z,13.13
2018-06-23T22:07:02.597Z,11.60
2018-06-23T22:09:35.828Z,13.17
2018-06-23T22:12:09.216Z,14.77
2018-06-23T22:14:42.408Z,17.17
2018-06-23T22:17:15.755Z,14.10
2018-06-23T22:19:49.068Z,16.23
2018-06-23T22:22:22.396Z,11.00
2018-06-23T22:24:55.697Z,12.80
2018-06-23T22:27:28.912Z,11.23
2018-06-23T22:30:02.127Z,14.67
2018-06-23T22:32:35.361Z,16.20
2018-06-23T22:35:09.212Z,11.37
2018-06-23T22:37:42.435Z,12.70
2018-06-23T22:40:15.665Z,12.20
2018-06-23T22:42:48.941Z,12.03
2018-06-23T22:45:22.135Z,11.53
2018-06-23T22:47:55.452Z,12.00
2018-06-23T22:50:28.830Z,12.70
2018-06-23T22:53:02.231Z,14.77
2018-06-23T22:55:35.552Z,14.67
2018-06-23T22:58:08.752Z,15.27
2018-06-23T23:00:42.188Z,14.20
2018-06-23T23:03:15.536Z,12.77
2018-06-23T23:05:48.806Z,13.33
2018-06-23T23:08:21.994Z,13.90
2018-06-23T23:10:55.365Z,9.10
2018-06-23T23:13:28.740Z,10.63
2018-06-23T23:16:01.984Z,14.10
2018-06-23T23:18:35.323Z,12.47
2018-06-23T23:21:08.497Z,12.17
2018-06-23T23:23:41.789Z,17.60
2018-06-23T23:26:15.109Z,12.73
2018-06-23T23:28:48.419Z,13.27
2018-06-23T23:31:21.808Z,15.53
2018-06-23T23:33:55.228Z,13.47
2018-06-23T23:36:28.652Z,14.30
2018-06-23T23:39:02.010Z,13.23
2018-06-23T23:41:35.377Z,13.43
2018-06-23T23:44:08.732Z,11.43
2018-06-23T23:46:41.997Z,15.33
2018-06-23T23:49:15.313Z,16.80
2018-06-23T23:51:48.661Z,13.23
2018-06-23T23:54:22.031Z,14.80
2018-06-23T23:56:55.301Z,13.40
2018-06-23T23:59:28.529Z,16.87
